| time (UTC) | temp C | wind direction | speed KPH | gust KPH | rain 1hr cm | rain 24hr cm | rain mn cm | humidity % | barometer mb |
| 20260906023637 | 9 | 315 | 3.2 | 11.3 | 0.00 | 0.00 | 0.00 | 79 | 1020.2 |
| 20260906022137 | 9 | 270 | 1.6 | 17.7 | 0.00 | 0.00 | 0.00 | 80 | 1020.2 |
| 20260906020637 | 9 | 222 | 1.6 | 9.7 | 0.00 | 0.00 | 0.00 | 82 | 1020.2 |
| 20260906015137 | 9 | 222 | 0.0 | 0.0 | 0.00 | 0.00 | 0.00 | 79 | 1020.1 |
| 20260906013637 | 10 | 222 | 0.0 | 0.0 | 0.00 | 0.00 | 0.00 | 78 | 1019.8 |
| 20260906012137 | 10 | 270 | 0.0 | 0.0 | 0.00 | 0.00 | 0.00 | 77 | 1019.8 |
| 20260906010637 | 10 | 270 | 0.0 | 0.0 | 0.00 | 0.00 | 0.00 | 74 | 1019.5 |
| 20260906005138 | 11 | 270 | 0.0 | 0.0 | 0.00 | 0.00 | 0.00 | 73 | 1019.4 |
| 20260906003637 | 11 | 270 | 0.0 | 4.8 | 0.00 | 0.00 | 0.00 | 74 | 1019.5 |
| 20260906002137 | 11 | 270 | 0.0 | 0.0 | 0.00 | 0.00 | 0.00 | 71 | 1019.1 |
| 20260906000637 | 11 | 270 | 1.6 | 4.8 | 0.00 | 0.00 | 0.00 | 71 | 1019.1 |
| 20260905235137 | 11 | 270 | 3.2 | 9.7 | 0.00 | 0.00 | 0.00 | 72 | 1019.1 |
| 20260905233637 | 11 | 270 | 1.6 | 8.0 | 0.00 | 0.00 | 0.00 | 71 | 1018.9 |
| 20260905232137 | 11 | 270 | 1.6 | 9.7 | 0.00 | 0.00 | 0.00 | 72 | 1018.8 |
| 20260905230637 | 11 | 270 | 0.0 | 8.0 | 0.00 | 0.00 | 0.00 | 74 | 1018.8 |
| 20260905225137 | 11 | 270 | 3.2 | 9.7 | 0.00 | 0.00 | 0.00 | 73 | 1018.7 |
| 20260905223642 | 11 | 222 | 0.0 | 0.0 | 0.00 | 0.00 | 0.00 | 72 | 10.1 |
| 20260905223637 | 11 | 222 | 0.0 | 0.0 | 0.00 | 0.00 | 0.00 | 72 | 1018.5 |
| 20260905222137 | 12 | 222 | 0.0 | 0.0 | 0.00 | 0.00 | 0.00 | 69 | 1018.5 |
| 20260905220637 | 12 | 270 | 1.6 | 11.3 | 0.00 | 0.00 | 0.00 | 71 | 1018.4 |
| 20260905215137 | 12 | 222 | 1.6 | 11.3 | 0.00 | 0.00 | 0.25 | 70 | 1018.5 |
| 20260905213637 | 12 | 270 | 1.6 | 12.9 | 0.00 | 0.00 | 0.25 | 67 | 1018.2 |
| 20260905212137 | 12 | 270 | 1.6 | 9.7 | 0.00 | 0.00 | 0.25 | 69 | 1018.1 |
| 20260905210637 | 12 | 270 | 0.0 | 4.8 | 0.00 | 0.00 | 0.25 | 67 | 1018.0 |
| 20260905205137 | 12 | 270 | 1.6 | 9.7 | 0.00 | 0.00 | 0.25 | 67 | 1018.0 |
| 20260905203637 | 12 | 270 | 0.0 | 0.0 | 0.00 | 0.00 | 0.25 | 68 | 1017.8 |
| 20260905202137 | 13 | 270 | 0.0 | 0.0 | 0.00 | 0.00 | 0.25 | 67 | 1017.7 |
| 20260905200637 | 14 | 222 | 0.0 | 0.0 | 0.00 | 0.00 | 0.25 | 61 | 1017.3 |
| 20260905184458 | 17 | 270 | 8.0 | 20.9 | 0.00 | 0.00 | 0.25 | 47 | 1015.9 |
| 20260905171821 | 20 | 270 | 11.3 | 20.9 | 0.00 | 0.00 | 0.25 | 45 | 1014.4 |
| 20260905170321 | 21 | 315 | 11.3 | 27.4 | 0.00 | 0.00 | 0.25 | 43 | 1014.0 |
| 20260905164821 | 21 | 270 | 14.5 | 29.0 | 0.00 | 0.00 | 0.25 | 42 | 1013.5 |
| 20260905163322 | 21 | 222 | 12.9 | 27.4 | 0.00 | 0.00 | 0.25 | 39 | 1013.2 |
| 20260905161822 | 22 | 222 | 14.5 | 27.4 | 0.00 | 0.00 | 0.25 | 37 | 1012.7 |
| 20260905135228 | 22 | 222 | 12.9 | 29.0 | 0.00 | 0.00 | 0.25 | 44 | 1011.9 |
| 20260905133721 | 22 | 222 | 16.1 | 29.0 | 0.00 | 0.00 | 0.25 | 42 | 1011.9 |
| 20260905132221 | 22 | 315 | 16.1 | 29.0 | 0.00 | 0.00 | 0.25 | 42 | 1012.0 |
| 20260905130721 | 22 | 222 | 16.1 | 29.0 | 0.00 | 0.00 | 0.25 | 44 | 1012.2 |
| 20260905125221 | 22 | 222 | 16.1 | 29.0 | 0.00 | 0.00 | 0.25 | 43 | 1012.1 |
| 20260905123721 | 22 | 0 | 12.9 | 29.0 | 0.00 | 0.00 | 0.25 | 47 | 1012.2 |
| 20260905122221 | 22 | 0 | 17.7 | 29.0 | 0.00 | 0.00 | 0.25 | 47 | 1012.0 |
| 20260905120721 | 22 | 222 | 12.9 | 29.0 | 0.00 | 0.00 | 0.25 | 48 | 1012.4 |
| 20260905115221 | 22 | 222 | 12.9 | 27.4 | 0.00 | 0.00 | 0.25 | 50 | 1012.5 |
| 20260905113721 | 20 | 270 | 12.9 | 27.4 | 0.00 | 0.00 | 0.25 | 52 | 1012.9 |
| 20260905112221 | 20 | 222 | 8.0 | 17.7 | 0.00 | 0.00 | 0.25 | 57 | 1013.1 |
| 20260905110721 | 20 | 222 | 9.7 | 27.4 | 0.00 | 0.00 | 0.25 | 55 | 1013.0 |
| 20260905105221 | 20 | 222 | 8.0 | 20.9 | 0.00 | 0.00 | 0.25 | 58 | 1013.1 |
| 20260905103721 | 20 | 270 | 11.3 | 27.4 | 0.00 | 0.00 | 0.25 | 55 | 1013.0 |
| 20260905102221 | 21 | 180 | 11.3 | 27.4 | 0.00 | 0.00 | 0.25 | 59 | 1013.0 |
| 20260905100721 | 18 | 180 | 16.1 | 29.0 | 0.00 | 0.00 | 0.25 | 57 | 1013.4 |
| 20260905095221 | 19 | 222 | 9.7 | 24.1 | 0.03 | 0.00 | 0.25 | 60 | 1013.1 |
| 20260905093721 | 18 | 270 | 11.3 | 25.7 | 0.03 | 0.00 | 0.25 | 61 | 1013.4 |
| 20260905092221 | 17 | 222 | 11.3 | 29.0 | 0.03 | 0.00 | 0.25 | 69 | 1013.6 |
| 20260905090721 | 17 | 222 | 12.9 | 25.7 | 0.03 | 0.00 | 0.25 | 71 | 1013.8 |
| 20260905085221 | 17 | 222 | 9.7 | 25.7 | 0.00 | 0.00 | 0.23 | 68 | 1013.5 |
| 20260905083721 | 17 | 222 | 12.9 | 27.4 | 0.00 | 0.00 | 0.23 | 71 | 1013.8 |
| 20260905082221 | 16 | 270 | 9.7 | 24.1 | 0.00 | 0.00 | 0.23 | 74 | 1013.9 |
| 20260905080721 | 17 | 222 | 8.0 | 19.3 | 0.00 | 0.00 | 0.23 | 74 | 1013.3 |
| 20260905075221 | 16 | 222 | 8.0 | 25.7 | 0.00 | 0.00 | 0.23 | 78 | 1013.6 |
| 20260905073721 | 15 | 222 | 9.7 | 24.1 | 0.00 | 0.00 | 0.23 | 81 | 1013.8 |
| 20260905072221 | 15 | 270 | 8.0 | 24.1 | 0.00 | 0.00 | 0.23 | 83 | 1013.8 |
| 20260905070721 | 15 | 222 | 6.4 | 22.5 | 0.00 | 0.00 | 0.23 | 81 | 1013.6 |
| 20260905065221 | 14 | 270 | 6.4 | 17.7 | 0.00 | 0.00 | 0.23 | 82 | 1013.3 |
| 20260905063721 | 14 | 222 | 4.8 | 17.7 | 0.00 | 0.00 | 0.23 | 85 | 1013.4 |
| 20260905062221 | 14 | 222 | 6.4 | 20.9 | 0.00 | 0.00 | 0.23 | 87 | 1013.6 |
| 20260905060721 | 13 | 222 | 3.2 | 14.5 | 0.00 | 0.00 | 0.23 | 89 | 1013.7 |
| 20260905055221 | 13 | 222 | 3.2 | 16.1 | 0.00 | 0.00 | 0.23 | 90 | 1013.5 |
| 20260905053721 | 12 | 270 | 1.6 | 12.9 | 0.00 | 0.00 | 0.23 | 92 | 1013.4 |
| 20260905052221 | 12 | 222 | 3.2 | 11.3 | 0.00 | 0.00 | 0.23 | 93 | 1013.3 |
| 20260905050721 | 12 | 222 | 1.6 | 6.4 | 0.00 | 0.00 | 0.23 | 93 | 1012.8 |
| 20260905045221 | 13 | 222 | 1.6 | 12.9 | 0.00 | 0.00 | 0.23 | 91 | 1012.4 |
| 20260905043721 | 13 | 222 | 0.0 | 4.8 | 0.08 | 0.00 | 0.23 | 89 | 1012.3 |
| 20260905042221 | 13 | 222 | 4.8 | 14.5 | 0.13 | 0.00 | 0.23 | 88 | 1012.3 |
| 20260905040721 | 13 | 222 | 3.2 | 8.0 | 0.18 | 0.00 | 0.23 | 90 | 1011.8 |
| 20260905035221 | 14 | 222 | 3.2 | 12.9 | 0.20 | 0.00 | 0.23 | 83 | 1011.2 |
| 20260905033721 | 15 | 270 | 0.0 | 4.8 | 0.10 | 0.00 | 0.13 | 82 | 1011.8 |
| 20260905032221 | 14 | 222 | 3.2 | 12.9 | 0.08 | 0.00 | 0.08 | 84 | 1012.2 |
| 20260905030721 | 15 | 222 | 6.4 | 16.1 | 0.05 | 0.00 | 0.05 | 81 | 1011.9 |
| 20260905025221 | 16 | 270 | 1.6 | 12.9 | 0.03 | 0.00 | 0.03 | 76 | 1011.4 |